Time;durP1;ratioP1;P1;durP2;ratioP2;P2;SDS_P1;SDS_P2;PMS_P1;PMS_P2;Temp;Humidity;BMP_temperature;BMP_pressure;BME280_temperature;BME280_humidity;BME280_pressure;Samples;Min_cycle;Max_cycle;Signal;HPM_P1;HPM_P2
2022/12/20 00:00:49;;;;;;;9.48;4.07;;;9.90;99.90;;;;;;5070564;28;20037;-70
2022/12/20 00:03:15;;;;;;;6.13;4.25;;;9.90;99.90;;;;;;5055222;28;20087;-70
2022/12/20 00:05:41;;;;;;;7.57;4.45;;;9.90;99.90;;;;;;5056473;28;20045;-69
2022/12/20 00:08:08;;;;;;;6.65;4.10;;;9.90;99.90;;;;;;5074462;28;20009;-69
2022/12/20 00:10:42;;;;;;;7.00;4.22;;;9.90;99.90;;;;;;5061479;28;20017;-69
2022/12/20 00:13:08;;;;;;;8.05;4.55;;;9.90;99.90;;;;;;5068844;28;20056;-69
2022/12/20 00:15:34;;;;;;;7.72;4.47;;;9.90;99.90;;;;;;5055796;28;20490;-70
2022/12/20 00:18:00;;;;;;;6.32;3.90;;;10.00;99.90;;;;;;5070541;28;20108;-70
2022/12/20 00:20:27;;;;;;;8.18;4.80;;;9.90;99.90;;;;;;5064609;28;20063;-70
2022/12/20 00:22:53;;;;;;;8.27;4.53;;;9.90;99.90;;;;;;5072795;28;20445;-70
2022/12/20 00:25:19;;;;;;;7.95;4.68;;;10.00;99.90;;;;;;5069309;28;20017;-69
2022/12/20 00:27:46;;;;;;;10.35;4.32;;;9.90;99.90;;;;;;5065349;28;20495;-69
2022/12/20 00:30:12;;;;;;;9.00;5.13;;;9.90;99.90;;;;;;5058164;28;20033;-70
2022/12/20 00:32:38;;;;;;;7.35;4.60;;;9.90;99.90;;;;;;5062742;28;20103;-71
2022/12/20 00:35:04;;;;;;;10.23;4.50;;;9.90;99.90;;;;;;5079546;28;20110;-70
2022/12/20 00:37:29;;;;;;;8.13;4.07;;;9.90;99.90;;;;;;5071379;28;20627;-70
2022/12/20 00:39:55;;;;;;;11.05;5.00;;;9.90;99.90;;;;;;5060900;28;20044;-70
2022/12/20 00:42:21;;;;;;;7.57;4.30;;;10.00;99.90;;;;;;5066689;28;20052;-70
2022/12/20 00:44:46;;;;;;;8.52;4.90;;;10.00;99.90;;;;;;5068954;28;20044;-70
2022/12/20 00:47:12;;;;;;;9.13;4.72;;;10.00;99.90;;;;;;5068229;28;20497;-70
2022/12/20 00:49:38;;;;;;;9.70;4.63;;;10.00;99.90;;;;;;5064876;28;20086;-70
2022/12/20 00:52:03;;;;;;;9.98;4.80;;;9.90;99.90;;;;;;5068580;28;20389;-70
2022/12/20 00:54:29;;;;;;;9.02;4.78;;;9.90;99.90;;;;;;5070822;28;20027;-71
2022/12/20 00:56:55;;;;;;;7.57;4.47;;;9.90;99.90;;;;;;5076369;28;20031;-70
2022/12/20 00:59:20;;;;;;;11.25;4.68;;;9.90;99.90;;;;;;5066895;28;20056;-70
2022/12/20 01:01:46;;;;;;;10.68;4.72;;;9.90;99.90;;;;;;5075159;28;20049;-70
2022/12/20 01:04:12;;;;;;;8.50;4.47;;;9.90;99.90;;;;;;5073160;28;20462;-71
2022/12/20 01:06:38;;;;;;;7.43;4.45;;;9.90;99.90;;;;;;5075846;28;20528;-72
2022/12/20 01:09:04;;;;;;;8.00;4.57;;;9.90;99.90;;;;;;5064690;28;20025;-71
2022/12/20 01:11:32;;;;;;;8.60;4.60;;;9.90;99.90;;;;;;5073018;28;20028;-70
2022/12/20 01:14:01;;;;;;;10.10;4.72;;;9.90;99.90;;;;;;5073103;28;20044;-70
2022/12/20 01:16:30;;;;;;;6.63;4.50;;;9.90;99.90;;;;;;5072889;28;20023;-70
2022/12/20 01:18:56;;;;;;;7.75;4.50;;;9.90;99.90;;;;;;5067213;28;20048;-70
2022/12/20 01:21:23;;;;;;;8.77;4.85;;;9.90;99.90;;;;;;5065893;28;20033;-70
2022/12/20 01:23:49;;;;;;;7.45;4.30;;;9.90;99.90;;;;;;5074291;28;20033;-71
2022/12/20 01:26:18;;;;;;;9.25;4.68;;;9.90;99.90;;;;;;5074395;28;20021;-71
2022/12/20 01:28:46;;;;;;;9.85;4.90;;;9.90;99.90;;;;;;5060784;28;20041;-70
2022/12/20 01:31:17;;;;;;;6.90;4.55;;;10.00;99.90;;;;;;5061499;28;20052;-70
2022/12/20 01:33:43;;;;;;;5.80;4.18;;;10.00;99.90;;;;;;5060679;28;20394;-70
2022/12/20 01:36:17;;;;;;;8.88;4.50;;;10.00;99.90;;;;;;5067638;28;20035;-71
2022/12/20 01:38:43;;;;;;;9.63;4.50;;;10.00;99.90;;;;;;5077998;28;20033;-71
2022/12/20 01:41:14;;;;;;;8.10;4.15;;;10.10;99.90;;;;;;5060034;28;20108;-70
2022/12/20 01:44:15;;;;;;;10.45;4.47;;;10.10;99.90;;;;;;5057379;28;20074;-70
2022/12/20 01:46:40;;;;;;;6.80;4.35;;;10.10;99.90;;;;;;5071914;28;20028;-71
2022/12/20 01:49:19;;;;;;;10.32;4.78;;;10.20;99.90;;;;;;5062139;28;20029;-71
2022/12/20 01:51:50;;;;;;;7.78;4.65;;;10.20;99.90;;;;;;5074613;28;20080;-71
2022/12/20 01:54:18;;;;;;;7.63;4.50;;;10.10;99.90;;;;;;5077743;28;20047;-71
2022/12/20 01:56:49;;;;;;;9.35;4.78;;;10.10;99.90;;;;;;5082997;28;20024;-71
2022/12/20 01:59:15;;;;;;;6.90;4.80;;;10.10;99.90;;;;;;5075420;28;20098;-71
2022/12/20 02:01:42;;;;;;;7.63;4.93;;;10.10;99.90;;;;;;5066414;28;20081;-71
2022/12/20 02:04:08;;;;;;;10.15;5.38;;;10.10;99.90;;;;;;5083512;28;20056;-70
2022/12/20 02:06:34;;;;;;;9.43;5.47;;;10.10;99.90;;;;;;5082128;28;20025;-71
2022/12/20 02:09:03;;;;;;;9.07;6.10;;;10.10;99.90;;;;;;5077935;28;20385;-71
2022/12/20 02:12:04;;;;;;;9.35;5.80;;;10.10;99.90;;;;;;5067414;28;20477;-72
2022/12/20 02:14:39;;;;;;;7.85;5.40;;;10.10;99.90;;;;;;5079062;28;20038;-71
2022/12/20 02:17:30;;;;;;;11.77;6.05;;;10.10;99.90;;;;;;5082220;28;20107;-71
2022/12/20 02:19:56;;;;;;;11.40;5.90;;;10.00;99.90;;;;;;5070253;28;20363;-70
2022/12/20 02:22:28;;;;;;;9.60;5.80;;;10.00;99.90;;;;;;5061400;28;20013;-71
2022/12/20 02:25:20;;;;;;;14.85;6.13;;;10.00;99.90;;;;;;5075156;28;20092;-71
2022/12/20 02:27:58;;;;;;;12.40;6.43;;;10.00;99.90;;;;;;5082950;28;20044;-71
2022/12/20 02:30:31;;;;;;;9.73;5.55;;;10.00;99.90;;;;;;5065915;28;20484;-71
2022/12/20 02:33:04;;;;;;;13.43;5.70;;;9.90;99.90;;;;;;5083619;28;20029;-71
2022/12/20 02:35:32;;;;;;;7.75;5.40;;;9.90;99.90;;;;;;5074602;28;20062;-71
2022/12/20 02:38:02;;;;;;;8.27;5.50;;;9.90;99.90;;;;;;5074941;28;20032;-71
2022/12/20 02:40:33;;;;;;;8.55;5.78;;;9.90;99.90;;;;;;5079408;28;20025;-71
2022/12/20 02:43:02;;;;;;;7.72;5.32;;;9.90;99.90;;;;;;5074955;28;20031;-70
2022/12/20 02:45:35;;;;;;;13.20;5.65;;;9.90;99.90;;;;;;5078351;28;20064;-71
2022/12/20 02:48:09;;;;;;;8.95;5.68;;;10.00;99.90;;;;;;5077774;28;20025;-71
2022/12/20 02:50:45;;;;;;;11.17;5.77;;;10.00;99.90;;;;;;5069669;28;20020;-71
2022/12/20 02:53:12;;;;;;;8.10;5.28;;;10.00;99.90;;;;;;5070828;28;20057;-71
2022/12/20 02:55:40;;;;;;;11.02;5.53;;;10.00;99.90;;;;;;5064012;28;20104;-72
2022/12/20 02:58:17;;;;;;;10.57;5.20;;;10.00;99.90;;;;;;5078148;28;20042;-72
2022/12/20 03:00:45;;;;;;;7.30;5.75;;;10.10;99.90;;;;;;5071770;28;20158;-71
2022/12/20 03:03:23;;;;;;;12.55;5.68;;;10.10;99.90;;;;;;5076828;28;20092;-71
2022/12/20 03:05:54;;;;;;;7.90;5.38;;;10.10;99.90;;;;;;5071456;28;20071;-72
2022/12/20 03:08:22;;;;;;;12.00;5.28;;;10.10;99.90;;;;;;5069132;28;20027;-71
2022/12/20 03:10:48;;;;;;;10.43;4.88;;;10.10;99.90;;;;;;5069274;28;20029;-71
2022/12/20 03:13:14;;;;;;;9.27;5.00;;;10.20;99.90;;;;;;5076190;28;20016;-71
2022/12/20 03:15:40;;;;;;;8.30;4.63;;;10.20;99.90;;;;;;5077063;28;20035;-69
2022/12/20 03:18:06;;;;;;;10.32;4.82;;;10.30;99.90;;;;;;5069723;28;20024;-72
2022/12/20 03:20:32;;;;;;;8.35;5.03;;;10.30;99.90;;;;;;5048484;28;20033;-71
2022/12/20 03:22:57;;;;;;;9.35;5.13;;;10.30;99.90;;;;;;5081080;28;20464;-69
2022/12/20 03:25:24;;;;;;;10.05;4.70;;;10.30;99.90;;;;;;5076208;28;20113;-70
2022/12/20 03:27:49;;;;;;;7.18;4.30;;;10.30;99.90;;;;;;5074325;28;20033;-71
2022/12/20 03:30:15;;;;;;;7.45;4.38;;;10.40;99.90;;;;;;5077168;28;20025;-70
2022/12/20 03:32:41;;;;;;;10.18;4.13;;;10.40;99.90;;;;;;5065410;28;20077;-70
2022/12/20 03:35:07;;;;;;;6.68;4.00;;;10.40;99.90;;;;;;5074957;28;20040;-70
2022/12/20 03:37:33;;;;;;;9.15;4.22;;;10.40;99.90;;;;;;5076685;28;20017;-70
2022/12/20 03:39:58;;;;;;;8.15;4.07;;;10.50;99.90;;;;;;5068615;28;20032;-69
2022/12/20 03:42:24;;;;;;;8.32;4.20;;;10.50;99.90;;;;;;5081809;28;20020;-70
2022/12/20 03:44:50;;;;;;;7.88;4.10;;;10.50;99.90;;;;;;5084703;28;20531;-70
2022/12/20 03:47:15;;;;;;;6.70;4.00;;;10.50;99.90;;;;;;5079976;28;20059;-69
2022/12/20 03:49:41;;;;;;;6.13;4.10;;;10.50;99.90;;;;;;5081983;28;20071;-70
2022/12/20 03:52:07;;;;;;;6.95;4.18;;;10.60;99.90;;;;;;5083430;28;20028;-70
2022/12/20 03:54:32;;;;;;;6.15;4.28;;;10.60;99.90;;;;;;5079964;28;20028;-70
2022/12/20 03:56:58;;;;;;;6.90;4.20;;;10.60;99.90;;;;;;5088706;28;20027;-70
2022/12/20 03:59:24;;;;;;;7.03;4.57;;;10.60;99.90;;;;;;5075166;28;20124;-70
2022/12/20 04:01:49;;;;;;;7.47;4.20;;;10.60;99.90;;;;;;5082848;28;20042;-72
2022/12/20 04:04:15;;;;;;;11.43;4.47;;;10.60;99.90;;;;;;5085473;28;20104;-70
2022/12/20 04:06:41;;;;;;;9.75;4.60;;;10.60;99.90;;;;;;5084829;28;20031;-70
2022/12/20 04:09:06;;;;;;;8.10;4.70;;;10.60;99.90;;;;;;5082161;28;20034;-71
2022/12/20 04:11:32;;;;;;;6.65;4.07;;;10.60;99.90;;;;;;5080547;28;20021;-71
2022/12/20 04:13:58;;;;;;;6.28;4.00;;;10.60;99.90;;;;;;5064915;28;20036;-71
2022/12/20 04:16:27;;;;;;;9.23;4.45;;;10.60;99.90;;;;;;5082689;28;20044;-71
2022/12/20 04:18:53;;;;;;;6.90;4.57;;;10.60;99.90;;;;;;5056463;28;20037;-71
2022/12/20 04:21:23;;;;;;;8.63;4.35;;;10.50;99.90;;;;;;5083205;28;20023;-70
2022/12/20 04:23:49;;;;;;;10.43;4.97;;;10.50;99.90;;;;;;5084876;28;20128;-71
2022/12/20 04:26:16;;;;;;;8.25;4.43;;;10.50;99.90;;;;;;5086867;28;20530;-74
2022/12/20 04:28:44;;;;;;;9.82;5.00;;;10.50;99.90;;;;;;5068585;28;20086;-74
2022/12/20 04:31:10;;;;;;;5.95;4.57;;;10.50;99.90;;;;;;5086187;28;20032;-70
2022/12/20 04:33:36;;;;;;;9.18;5.05;;;10.50;99.90;;;;;;5087282;28;20024;-70
2022/12/20 04:36:02;;;;;;;7.95;5.25;;;10.50;99.90;;;;;;5085862;28;20031;-70
2022/12/20 04:38:27;;;;;;;8.98;5.10;;;10.40;99.90;;;;;;5102273;28;20038;-70
2022/12/20 04:40:54;;;;;;;14.05;5.95;;;10.40;99.90;;;;;;5079613;28;20048;-70
2022/12/20 04:43:22;;;;;;;7.32;4.88;;;10.40;99.90;;;;;;5101321;28;20025;-70
2022/12/20 04:45:49;;;;;;;8.73;5.13;;;10.40;99.90;;;;;;5074772;28;20100;-70
2022/12/20 04:48:15;;;;;;;7.35;4.82;;;10.40;99.90;;;;;;5079578;28;20025;-70
2022/12/20 04:50:41;;;;;;;7.68;4.60;;;10.40;99.90;;;;;;5057578;28;20028;-70
2022/12/20 04:55:54;;;;;;;10.15;5.35;;;10.30;99.90;;;;;;5095851;28;20114;-71
2022/12/20 04:58:20;;;;;;;10.00;6.20;;;10.30;99.90;;;;;;5066624;28;20099;-70
2022/12/20 05:00:46;;;;;;;10.50;5.05;;;10.30;99.90;;;;;;5062948;28;20029;-69
2022/12/20 05:03:11;;;;;;;9.88;5.30;;;10.30;99.90;;;;;;5073663;28;20024;-69
2022/12/20 05:05:37;;;;;;;8.25;5.30;;;10.40;99.90;;;;;;5061038;28;20513;-70
2022/12/20 05:08:03;;;;;;;7.55;5.00;;;10.40;99.90;;;;;;5070941;28;20024;-70
2022/12/20 05:10:29;;;;;;;7.50;4.72;;;10.40;99.90;;;;;;5072002;28;20060;-70
2022/12/20 05:12:55;;;;;;;8.88;5.55;;;10.40;99.90;;;;;;5071827;28;20063;-70
2022/12/20 05:15:20;;;;;;;8.80;5.13;;;10.40;99.90;;;;;;5057407;28;20455;-70
2022/12/20 05:17:46;;;;;;;8.85;4.93;;;10.40;99.90;;;;;;5079767;28;20013;-70
2022/12/20 05:20:12;;;;;;;7.63;4.68;;;10.40;99.90;;;;;;5065938;28;20032;-70
2022/12/20 05:28:06;;;;;;;9.73;4.85;;;10.40;99.90;;;;;;5057905;28;20028;-70
2022/12/20 05:30:31;;;;;;;6.25;4.30;;;10.50;99.90;;;;;;5063920;28;20028;-70
2022/12/20 05:32:57;;;;;;;9.27;5.00;;;10.40;99.90;;;;;;5077363;28;20035;-70
2022/12/20 05:35:23;;;;;;;8.30;4.65;;;10.50;99.90;;;;;;5070275;28;20063;-70
2022/12/20 05:37:48;;;;;;;5.55;3.85;;;10.40;99.90;;;;;;5068344;28;20025;-70
2022/12/20 05:40:15;;;;;;;8.57;4.70;;;10.50;99.90;;;;;;5072336;28;20036;-70
2022/12/20 05:42:40;;;;;;;10.02;4.95;;;10.50;99.90;;;;;;5070689;28;20069;-70
2022/12/20 05:45:06;;;;;;;6.75;4.25;;;10.50;99.90;;;;;;5070928;28;20025;-70
2022/12/20 05:47:32;;;;;;;9.30;4.45;;;10.50;99.90;;;;;;5072355;28;20095;-70
2022/12/20 05:49:59;;;;;;;8.70;4.47;;;10.50;99.90;;;;;;5069510;28;20032;-69
2022/12/20 05:52:25;;;;;;;10.65;5.10;;;10.50;99.90;;;;;;5070118;28;20044;-70
2022/12/20 05:54:50;;;;;;;7.72;4.45;;;10.50;99.90;;;;;;5070309;28;20021;-70
2022/12/20 05:57:16;;;;;;;8.55;4.30;;;10.60;99.90;;;;;;5070062;28;20024;-70
2022/12/20 05:59:42;;;;;;;8.90;5.00;;;10.60;99.90;;;;;;5070260;28;20376;-70
2022/12/20 06:02:11;;;;;;;9.18;4.50;;;10.60;99.90;;;;;;5068647;28;20016;-70
2022/12/20 06:04:37;;;;;;;7.88;4.45;;;10.60;99.90;;;;;;5064579;28;20054;-69
2022/12/20 06:07:04;;;;;;;12.65;5.28;;;10.70;99.90;;;;;;5083450;28;20508;-70
2022/12/20 06:09:30;;;;;;;7.80;4.72;;;10.80;99.90;;;;;;5085844;28;20427;-70
2022/12/20 06:11:56;;;;;;;7.32;4.63;;;10.80;99.90;;;;;;5066759;28;20435;-71
2022/12/20 06:14:22;;;;;;;9.02;4.38;;;10.80;99.90;;;;;;5079785;28;20044;-70
2022/12/20 06:16:47;;;;;;;11.75;5.35;;;10.80;99.90;;;;;;5071240;28;20060;-70
2022/12/20 06:19:13;;;;;;;6.78;4.70;;;10.90;99.90;;;;;;5058992;28;20039;-70
2022/12/20 06:21:39;;;;;;;10.98;4.93;;;10.90;99.90;;;;;;5041835;28;20024;-70
2022/12/20 06:24:05;;;;;;;6.80;4.60;;;10.90;99.90;;;;;;5081015;28;20100;-70
2022/12/20 06:26:35;;;;;;;7.75;4.30;;;10.90;99.90;;;;;;5071861;28;20030;-70
2022/12/20 06:29:09;;;;;;;8.90;4.28;;;10.90;99.90;;;;;;5079839;28;20435;-70
2022/12/20 06:31:35;;;;;;;8.32;4.20;;;10.90;99.90;;;;;;5062612;28;20405;-70
2022/12/20 06:34:00;;;;;;;7.47;4.03;;;10.90;99.90;;;;;;5088494;28;20111;-70
2022/12/20 06:36:28;;;;;;;6.38;3.92;;;10.90;99.90;;;;;;5073233;28;20096;-70
2022/12/20 06:38:54;;;;;;;8.43;4.25;;;10.90;99.90;;;;;;5074301;28;20128;-70
2022/12/20 06:41:20;;;;;;;7.25;3.83;;;11.00;99.90;;;;;;5079832;28;20100;-70
2022/12/20 06:43:46;;;;;;;7.82;3.97;;;10.90;99.90;;;;;;5055376;28;20482;-70
2022/12/20 06:46:12;;;;;;;6.88;4.00;;;10.90;99.90;;;;;;5071653;28;20074;-70
2022/12/20 06:48:38;;;;;;;7.00;3.88;;;10.90;99.90;;;;;;5071809;28;20472;-70
2022/12/20 06:51:04;;;;;;;8.32;3.88;;;10.90;99.90;;;;;;5068232;28;20024;-71
2022/12/20 06:53:29;;;;;;;6.78;3.88;;;10.90;99.90;;;;;;5065262;28;20309;-71
2022/12/20 06:55:55;;;;;;;6.68;3.72;;;10.90;99.90;;;;;;5058952;28;20540;-71
2022/12/20 06:58:21;;;;;;;9.20;3.55;;;10.90;99.90;;;;;;5066665;28;20472;-70
2022/12/20 07:00:47;;;;;;;10.20;4.00;;;11.00;99.90;;;;;;5080162;28;20036;-72
2022/12/20 07:03:13;;;;;;;11.18;3.47;;;11.00;99.90;;;;;;5091906;28;20493;-69
2022/12/20 07:05:39;;;;;;;6.93;3.22;;;11.00;99.90;;;;;;5082932;28;20090;-71
2022/12/20 07:08:06;;;;;;;7.82;3.30;;;11.00;99.90;;;;;;5054619;28;20501;-70
2022/12/20 07:10:36;;;;;;;7.68;3.70;;;11.10;99.90;;;;;;5064430;28;20029;-70
2022/12/20 07:13:02;;;;;;;7.20;3.50;;;11.10;99.90;;;;;;5070385;28;20009;-70
2022/12/20 07:15:27;;;;;;;7.18;3.10;;;11.10;99.90;;;;;;5064490;28;20386;-70
2022/12/20 07:17:53;;;;;;;6.70;3.35;;;11.10;99.90;;;;;;5062011;28;20049;-70
2022/12/20 07:20:19;;;;;;;6.78;3.17;;;11.10;99.90;;;;;;5060933;28;20100;-70
2022/12/20 07:22:47;;;;;;;7.18;3.17;;;11.10;99.90;;;;;;5063654;28;20082;-70
2022/12/20 07:25:13;;;;;;;6.07;3.00;;;11.10;99.90;;;;;;5067554;28;20012;-70
2022/12/20 07:27:38;;;;;;;7.10;3.80;;;11.10;99.90;;;;;;5070807;28;20025;-70
2022/12/20 07:30:05;;;;;;;5.82;3.60;;;11.10;99.90;;;;;;5071416;28;20028;-70
2022/12/20 07:32:31;;;;;;;6.90;3.33;;;11.10;99.90;;;;;;5066222;28;20047;-70
2022/12/20 07:34:57;;;;;;;5.55;3.50;;;11.00;99.90;;;;;;5068832;28;20039;-70
2022/12/20 07:37:23;;;;;;;8.30;3.70;;;11.00;99.90;;;;;;5069228;28;20025;-71
2022/12/20 07:39:48;;;;;;;5.82;3.05;;;11.00;99.90;;;;;;5067983;28;20033;-71
2022/12/20 07:42:14;;;;;;;7.30;3.40;;;10.90;99.90;;;;;;5061014;28;20016;-71
2022/12/20 07:44:39;;;;;;;5.93;3.40;;;10.90;99.90;;;;;;5057938;28;20109;-71
2022/12/20 07:47:05;;;;;;;5.88;3.22;;;10.80;99.90;;;;;;5071005;28;20383;-72
2022/12/20 07:49:31;;;;;;;6.15;3.42;;;10.80;99.90;;;;;;5066341;28;20040;-71
2022/12/20 07:51:58;;;;;;;6.50;3.50;;;10.80;99.90;;;;;;5070834;28;20032;-72
2022/12/20 07:54:36;;;;;;;6.68;3.80;;;10.80;99.90;;;;;;5071249;28;20020;-71
2022/12/20 07:57:12;;;;;;;9.32;3.72;;;10.80;99.90;;;;;;5054427;28;20017;-71
2022/12/20 07:59:43;;;;;;;;;;;10.80;99.90;;;;;;5070743;28;20048;-71
2022/12/20 08:02:34;;;;;;;7.00;3.47;;;10.70;99.90;;;;;;5065835;28;19919;-72
2022/12/20 08:05:01;;;;;;;7.90;3.90;;;10.70;99.90;;;;;;5063245;28;20245;-71
2022/12/20 08:07:28;;;;;;;8.60;3.80;;;10.60;99.90;;;;;;5071232;28;20036;-71
2022/12/20 08:09:54;;;;;;;8.82;3.28;;;10.60;99.90;;;;;;5073189;28;20028;-71
2022/12/20 08:12:20;;;;;;;8.13;3.80;;;10.60;99.90;;;;;;5071825;28;20496;-71
2022/12/20 08:14:46;;;;;;;8.35;3.45;;;10.50;99.90;;;;;;5072762;28;20493;-71
2022/12/20 08:17:12;;;;;;;7.88;3.55;;;10.50;99.90;;;;;;5063004;28;20044;-71
2022/12/20 08:19:38;;;;;;;9.30;3.83;;;10.50;99.90;;;;;;5071687;28;20113;-71
2022/12/20 08:22:05;;;;;;;6.95;3.42;;;10.50;99.90;;;;;;5061205;28;20016;-71
2022/12/20 08:24:32;;;;;;;10.80;4.00;;;10.50;99.90;;;;;;5069070;28;20021;-71
2022/12/20 08:26:57;;;;;;;7.78;3.30;;;10.50;99.90;;;;;;5069963;28;20066;-72
2022/12/20 08:29:23;;;;;;;9.48;3.80;;;10.50;99.90;;;;;;5071939;28;20485;-71
2022/12/20 08:31:49;;;;;;;8.50;3.75;;;10.50;99.90;;;;;;5070512;28;20105;-71
2022/12/20 08:34:14;;;;;;;7.85;3.50;;;10.50;99.90;;;;;;5071557;28;20505;-71
2022/12/20 08:36:40;;;;;;;10.90;3.47;;;10.50;99.90;;;;;;5062007;28;20501;-71
2022/12/20 08:39:06;;;;;;;4.97;3.55;;;10.50;99.90;;;;;;5075094;28;20445;-71
2022/12/20 08:41:35;;;;;;;8.07;3.80;;;10.50;99.90;;;;;;5074444;28;20023;-71
2022/12/20 08:44:01;;;;;;;7.93;3.40;;;10.50;99.90;;;;;;5071825;28;20086;-71
2022/12/20 08:46:26;;;;;;;7.75;3.60;;;10.50;99.90;;;;;;5060270;28;20025;-71
2022/12/20 08:48:52;;;;;;;7.50;3.40;;;10.50;99.90;;;;;;5083835;28;20035;-71
2022/12/20 08:51:18;;;;;;;8.23;3.63;;;10.50;99.90;;;;;;5072206;28;20024;-71
2022/12/20 08:53:43;;;;;;;6.88;3.50;;;10.50;99.90;;;;;;5070859;28;20021;-71
2022/12/20 08:56:17;;;;;;;6.70;3.30;;;10.50;99.90;;;;;;5071002;28;20437;-71
2022/12/20 08:58:43;;;;;;;8.27;3.60;;;10.50;99.90;;;;;;5070619;28;20020;-71
2022/12/20 09:01:11;;;;;;;7.93;3.30;;;10.50;99.90;;;;;;5069309;28;20066;-71
2022/12/20 09:03:38;;;;;;;7.35;3.50;;;10.50;99.90;;;;;;5069996;28;20151;-71
2022/12/20 09:06:12;;;;;;;10.85;3.63;;;10.50;99.90;;;;;;5071091;28;20477;-71
2022/12/20 09:08:39;;;;;;;6.57;3.65;;;10.50;99.90;;;;;;5070345;28;20066;-71
2022/12/20 09:11:21;;;;;;;7.78;3.67;;;10.50;99.90;;;;;;5070760;28;20020;-71
2022/12/20 09:13:48;;;;;;;9.73;3.67;;;10.50;99.90;;;;;;5071683;28;20090;-71
2022/12/20 09:16:16;;;;;;;8.07;3.67;;;10.40;99.90;;;;;;5069755;28;20108;-71
2022/12/20 09:18:43;;;;;;;9.98;3.67;;;10.50;99.90;;;;;;5072029;28;20459;-71
2022/12/20 09:21:10;;;;;;;6.38;3.60;;;10.50;99.90;;;;;;5070349;28;20021;-71
2022/12/20 09:23:36;;;;;;;9.95;3.80;;;10.40;99.90;;;;;;5071194;28;20432;-71
2022/12/20 09:26:04;;;;;;;9.05;4.00;;;10.40;99.90;;;;;;5070051;28;20025;-71
2022/12/20 09:28:31;;;;;;;7.75;3.65;;;10.40;99.90;;;;;;5072272;28;20111;-71
2022/12/20 09:31:00;;;;;;;8.77;4.05;;;10.40;99.90;;;;;;5055817;28;20040;-71
2022/12/20 09:33:27;;;;;;;7.35;3.92;;;10.40;99.90;;;;;;5071366;28;20028;-71
2022/12/20 09:35:53;;;;;;;9.73;3.70;;;10.40;99.90;;;;;;5070137;28;20032;-71
2022/12/20 09:38:19;;;;;;;8.82;4.25;;;10.40;99.90;;;;;;5071253;28;20031;-70
2022/12/20 09:40:51;;;;;;;10.02;4.00;;;10.40;99.90;;;;;;5072210;28;20445;-71
2022/12/20 09:43:19;;;;;;;9.20;4.13;;;10.40;99.90;;;;;;5070709;28;20028;-71
2022/12/20 09:45:47;;;;;;;10.38;4.10;;;10.40;99.90;;;;;;5072317;28;20017;-71
2022/12/20 09:48:22;;;;;;;12.27;4.30;;;10.40;99.90;;;;;;5070055;28;20418;-71
2022/12/20 09:50:54;;;;;;;;;;;10.40;99.90;;;;;;5076640;28;20013;-71
2022/12/20 09:53:32;;;;;;;8.10;4.28;;;10.40;99.90;;;;;;5076384;28;19978;-71
2022/12/20 09:56:05;;;;;;;7.25;4.25;;;10.40;99.90;;;;;;5073820;28;20042;-71
2022/12/20 09:59:00;;;;;;;8.52;4.13;;;10.40;99.90;;;;;;5056597;28;20442;-71
2022/12/20 10:01:28;;;;;;;9.25;4.40;;;10.40;99.90;;;;;;5035059;28;20049;-71
2022/12/20 10:03:56;;;;;;;10.20;4.13;;;10.40;99.90;;;;;;5062894;28;20487;-71
2022/12/20 10:06:33;;;;;;;9.32;4.10;;;10.30;99.90;;;;;;5051261;28;20598;-71
2022/12/20 10:09:09;;;;;;;11.27;4.22;;;10.30;99.90;;;;;;5057283;28;20017;-71
2022/12/20 10:11:54;;;;;;;11.95;4.43;;;10.30;99.90;;;;;;5069456;28;20493;-71
2022/12/20 10:14:54;;;;;;;9.53;4.20;;;10.30;99.90;;;;;;5069919;28;20028;-71
2022/12/20 10:17:39;;;;;;;10.20;4.35;;;10.30;99.90;;;;;;4986041;28;20110;-71
2022/12/20 10:20:13;;;;;;;7.90;4.40;;;10.30;99.90;;;;;;4987507;28;20126;-71
2022/12/20 10:22:51;;;;;;;7.20;4.53;;;10.30;99.90;;;;;;4999750;28;20541;-71
2022/12/20 10:25:24;;;;;;;12.10;4.80;;;10.30;99.90;;;;;;4989001;28;20452;-71
2022/12/20 10:27:53;;;;;;;10.73;4.50;;;10.30;99.90;;;;;;4986285;28;21219;-71
2022/12/20 10:30:24;;;;;;;11.20;4.45;;;10.40;99.90;;;;;;4987582;28;20030;-71
2022/12/20 10:32:54;;;;;;;9.35;4.47;;;10.30;99.90;;;;;;4988148;28;20035;-72
2022/12/20 10:35:30;;;;;;;12.98;4.80;;;10.40;99.90;;;;;;4988527;28;20014;-71
2022/12/20 10:38:02;;;;;;;8.00;4.53;;;10.40;99.90;;;;;;4987433;28;20058;-72
2022/12/20 10:40:35;;;;;;;12.10;4.72;;;10.40;99.90;;;;;;4987470;28;20042;-71
2022/12/20 10:43:03;;;;;;;8.77;4.90;;;10.40;99.90;;;;;;4987719;28;20060;-72
2022/12/20 10:45:36;;;;;;;12.15;5.10;;;10.30;99.90;;;;;;4986875;28;20018;-71
2022/12/20 10:48:05;;;;;;;11.45;4.90;;;10.30;99.90;;;;;;4988123;28;20029;-71
2022/12/20 10:50:31;;;;;;;11.60;5.22;;;10.30;99.90;;;;;;4987605;28;20058;-71
2022/12/20 10:53:08;;;;;;;13.00;5.40;;;10.40;99.90;;;;;;5028876;28;20501;-71
2022/12/20 10:55:40;;;;;;;11.63;5.22;;;10.40;99.90;;;;;;5068642;28;20024;-71
2022/12/20 10:58:12;;;;;;;8.60;5.18;;;10.40;99.90;;;;;;5051646;28;20112;-71
2022/12/20 11:00:38;;;;;;;9.02;5.40;;;10.40;99.90;;;;;;5068738;28;20032;-71
2022/12/20 11:03:21;;;;;;;10.32;5.50;;;10.50;99.90;;;;;;5059860;28;20021;-71
2022/12/20 11:06:01;;;;;;;8.48;5.40;;;10.40;99.90;;;;;;5066100;28;20223;-71
2022/12/20 11:08:28;;;;;;;12.20;6.20;;;10.50;99.90;;;;;;5069456;28;20486;-71
2022/12/20 11:11:29;;;;;;;13.80;6.20;;;10.50;99.90;;;;;;5069141;28;20013;-71
2022/12/20 11:14:13;;;;;;;14.98;6.32;;;10.50;99.90;;;;;;4985533;28;20602;-71
2022/12/20 11:16:39;;;;;;;13.88;6.50;;;10.50;99.90;;;;;;4988298;28;20146;-71
2022/12/20 11:19:13;;;;;;;11.00;6.15;;;10.50;99.90;;;;;;4985771;28;20026;-71
2022/12/20 11:22:14;;;;;;;13.57;6.32;;;10.50;99.90;;;;;;4976669;28;20032;-71
2022/12/20 11:25:00;;;;;;;15.52;6.30;;;10.60;99.90;;;;;;4984448;28;20056;-71
2022/12/20 11:27:50;;;;;;;11.60;6.22;;;10.60;99.90;;;;;;4986584;28;20068;-71
2022/12/20 11:30:23;;;;;;;13.57;6.80;;;10.60;99.90;;;;;;4986850;28;20034;-71
2022/12/20 11:33:07;;;;;;;15.68;7.00;;;10.60;99.90;;;;;;4986402;28;20531;-71
2022/12/20 11:35:41;;;;;;;15.15;6.88;;;10.60;99.90;;;;;;4986602;28;20042;-71
2022/12/20 11:39:08;;;;;;;12.38;6.60;;;10.60;99.90;;;;;;4986251;28;20034;-71
2022/12/20 11:41:41;;;;;;;12.73;7.13;;;10.60;99.90;;;;;;4929187;29;20105;-71
2022/12/20 11:44:28;;;;;;;12.50;7.28;;;10.60;99.90;;;;;;4930111;29;20070;-71
2022/12/20 11:47:05;;;;;;;15.25;7.22;;;10.60;99.90;;;;;;4933156;28;20044;-71
2022/12/20 11:49:56;;;;;;;11.38;7.20;;;10.60;99.90;;;;;;5007297;28;20049;-71
2022/12/20 11:52:53;;;;;;;14.90;8.82;;;10.70;99.90;;;;;;5006416;28;20402;-71
2022/12/20 11:55:33;;;;;;;14.07;7.97;;;10.70;99.90;;;;;;4997022;28;20037;-71
2022/12/20 11:58:10;;;;;;;12.35;8.13;;;10.70;99.90;;;;;;5010701;28;20030;-71
2022/12/20 12:00:39;;;;;;;15.88;8.02;;;10.70;99.90;;;;;;5002220;28;20046;-71
2022/12/20 12:03:27;;;;;;;13.48;7.72;;;10.70;99.90;;;;;;4986447;28;20030;-71
2022/12/20 12:06:22;;;;;;;15.05;7.25;;;10.70;99.90;;;;;;4991763;28;20046;-71
2022/12/20 12:09:17;;;;;;;13.40;7.38;;;10.70;99.90;;;;;;4992348;28;20050;-71
2022/12/20 12:11:50;;;;;;;12.18;7.45;;;10.70;99.90;;;;;;5001355;28;20410;-71
2022/12/20 12:14:34;;;;;;;12.30;7.32;;;10.70;99.90;;;;;;5067677;28;20013;-71
2022/12/20 12:17:08;;;;;;;13.07;7.67;;;10.70;99.90;;;;;;5069165;28;20390;-71
2022/12/20 12:19:39;;;;;;;15.05;7.82;;;10.70;99.90;;;;;;5054673;28;20024;-71
2022/12/20 12:22:12;;;;;;;15.50;7.60;;;10.70;99.90;;;;;;5067750;28;20378;-71
2022/12/20 12:24:43;;;;;;;11.32;8.20;;;10.80;99.90;;;;;;5054601;28;20032;-71
2022/12/20 12:27:22;;;;;;;14.75;8.35;;;10.70;99.90;;;;;;5070187;28;20024;-71
2022/12/20 12:29:48;;;;;;;15.55;8.07;;;10.80;99.90;;;;;;5053950;28;20032;-71
2022/12/20 12:32:23;;;;;;;15.98;8.38;;;10.80;99.90;;;;;;5072754;28;20025;-71
2022/12/20 12:35:22;;;;;;;13.70;8.30;;;10.80;99.90;;;;;;5070914;28;20056;-71
2022/12/20 12:38:03;;;;;;;14.40;8.70;;;10.80;99.90;;;;;;5071675;28;20039;-71
2022/12/20 12:41:01;;;;;;;16.38;8.98;;;10.80;99.90;;;;;;5071249;28;20028;-71
2022/12/20 12:43:39;;;;;;;12.63;8.30;;;10.80;99.90;;;;;;5058280;28;20028;-71
2022/12/20 12:46:11;;;;;;;16.10;8.30;;;10.70;99.90;;;;;;5072130;28;20016;-71
2022/12/20 12:48:52;;;;;;;14.20;8.27;;;10.70;99.90;;;;;;5053311;28;20028;-71
2022/12/20 12:51:36;;;;;;;12.15;8.10;;;10.70;99.90;;;;;;5070655;28;20385;-71
2022/12/20 12:54:33;;;;;;;16.70;8.77;;;10.70;99.90;;;;;;5069250;28;20024;-71
2022/12/20 12:57:02;;;;;;;13.40;8.85;;;10.70;99.90;;;;;;5053619;28;20036;-70
2022/12/20 12:59:33;;;;;;;13.88;8.60;;;10.70;99.90;;;;;;5070647;28;20599;-71
2022/12/20 13:02:04;;;;;;;15.43;8.55;;;10.70;99.90;;;;;;5068340;28;20017;-71
2022/12/20 13:05:05;;;;;;;16.02;8.57;;;10.70;99.90;;;;;;5061911;28;20580;-70
2022/12/20 13:07:34;;;;;;;11.63;8.45;;;10.70;99.90;;;;;;5059378;28;20025;-70
2022/12/20 13:10:08;;;;;;;14.20;8.80;;;10.70;99.90;;;;;;5071424;28;20025;-71